createdAt,value
2023-05-05T00:00:13.158Z,9.85
2023-05-05T00:02:40.429Z,10.05
2023-05-05T00:05:08.765Z,10.13
2023-05-05T00:07:36.485Z,9.55
2023-05-05T00:10:03.846Z,8.25
2023-05-05T00:12:31.004Z,9.15
2023-05-05T00:14:57.924Z,9.85
2023-05-05T00:17:24.816Z,9.50
2023-05-05T00:19:51.644Z,9.68
2023-05-05T00:22:18.511Z,9.45
2023-05-05T00:24:45.605Z,8.68
2023-05-05T00:27:12.445Z,9.30
2023-05-05T00:29:39.284Z,8.98
2023-05-05T00:32:06.353Z,9.13
2023-05-05T00:34:33.179Z,9.90
2023-05-05T00:37:00.078Z,9.27
2023-05-05T00:39:27.180Z,9.73
2023-05-05T00:41:54.312Z,9.63
2023-05-05T00:44:37.054Z,9.25
2023-05-05T00:47:04.255Z,8.65
2023-05-05T00:49:31.770Z,9.45
2023-05-05T00:51:59.517Z,9.40
2023-05-05T00:54:27.900Z,10.15
2023-05-05T00:56:55.042Z,9.60
2023-05-05T00:59:22.880Z,10.35
2023-05-05T01:01:50.835Z,9.70
2023-05-05T01:04:18.032Z,11.65
2023-05-05T01:06:57.577Z,10.45
2023-05-05T01:09:36.867Z,11.23
2023-05-05T01:12:40.420Z,10.45
2023-05-05T01:15:22.866Z,11.48
2023-05-05T01:20:38.367Z,12.07
2023-05-05T01:23:14.562Z,12.68
2023-05-05T01:26:02.720Z,13.38
2023-05-05T01:29:03.021Z,13.00
2023-05-05T01:31:35.641Z,13.07
2023-05-05T01:34:07.589Z,13.25
2023-05-05T01:39:12.703Z,12.57
2023-05-05T01:41:46.759Z,12.57
2023-05-05T01:44:16.664Z,12.80
2023-05-05T01:46:43.466Z,11.93
2023-05-05T01:49:13.033Z,11.68
2023-05-05T01:51:41.497Z,12.02
2023-05-05T01:54:09.572Z,11.32
2023-05-05T01:56:40.121Z,8.85
2023-05-05T01:59:07.956Z,10.65
2023-05-05T02:01:39.481Z,8.15
2023-05-05T02:04:10.044Z,9.25
2023-05-05T02:06:38.003Z,9.25
2023-05-05T02:09:05.856Z,8.75
2023-05-05T02:11:33.258Z,8.77
2023-05-05T02:14:02.220Z,8.80
2023-05-05T02:16:31.157Z,9.88
2023-05-05T02:19:01.821Z,8.80
2023-05-05T02:21:28.726Z,8.63
2023-05-05T02:23:55.713Z,9.02
2023-05-05T02:26:24.730Z,9.13
2023-05-05T02:28:58.146Z,8.98
2023-05-05T02:31:27.933Z,8.85
2023-05-05T02:33:57.969Z,8.32
2023-05-05T02:36:29.690Z,8.43
2023-05-05T02:39:03.387Z,8.63
2023-05-05T02:41:32.945Z,8.57
2023-05-05T02:44:02.359Z,8.23
2023-05-05T02:46:29.611Z,8.82
2023-05-05T02:48:56.531Z,8.65
2023-05-05T02:51:23.721Z,9.52
2023-05-05T02:53:52.325Z,8.98
2023-05-05T02:56:38.797Z,9.70
2023-05-05T02:59:34.319Z,8.95
2023-05-05T03:02:11.523Z,8.85
2023-05-05T03:04:49.169Z,8.35
2023-05-05T03:07:45.289Z,7.25
2023-05-05T03:10:21.768Z,8.10
2023-05-05T03:12:59.224Z,7.95
2023-05-05T03:15:31.227Z,8.27
2023-05-05T03:17:59.558Z,7.82
2023-05-05T03:20:26.750Z,8.73
2023-05-05T03:22:55.157Z,8.25
2023-05-05T03:25:22.364Z,8.95
2023-05-05T03:27:49.454Z,7.85
2023-05-05T03:30:16.155Z,8.55
2023-05-05T03:32:42.934Z,9.55
2023-05-05T03:35:09.947Z,9.02
2023-05-05T03:37:37.182Z,9.55
2023-05-05T03:40:04.066Z,9.57
2023-05-05T03:42:31.152Z,9.55
2023-05-05T03:44:58.146Z,9.13
2023-05-05T03:47:25.096Z,10.00
2023-05-05T03:49:52.549Z,10.25
2023-05-05T03:52:19.396Z,9.30
2023-05-05T03:54:46.217Z,8.90
2023-05-05T03:57:13.120Z,8.93
2023-05-05T03:59:39.919Z,8.75
2023-05-05T04:02:06.779Z,9.48
2023-05-05T04:04:33.782Z,8.05
2023-05-05T04:07:01.042Z,8.77
2023-05-05T04:09:28.064Z,10.30
2023-05-05T04:11:54.854Z,9.90
2023-05-05T04:14:22.313Z,9.13
2023-05-05T04:16:49.163Z,8.57
2023-05-05T04:19:15.990Z,8.88
2023-05-05T04:21:42.814Z,9.75
2023-05-05T04:24:10.106Z,8.25
2023-05-05T04:26:37.449Z,7.57
2023-05-05T04:29:04.613Z,8.32
2023-05-05T04:31:32.165Z,7.38
2023-05-05T04:33:59.103Z,9.23
2023-05-05T04:36:26.253Z,7.45
2023-05-05T04:38:53.452Z,8.20
2023-05-05T04:41:20.256Z,8.63
2023-05-05T04:43:47.195Z,8.00
2023-05-05T04:46:14.133Z,8.38
2023-05-05T04:48:41.285Z,8.27
2023-05-05T04:51:08.286Z,8.38
2023-05-05T04:53:35.115Z,8.98
2023-05-05T04:56:01.935Z,8.02
2023-05-05T04:58:29.529Z,8.40
2023-05-05T05:00:56.404Z,8.45
2023-05-05T05:03:23.598Z,7.72
2023-05-05T05:05:50.777Z,9.15
2023-05-05T05:08:18.399Z,8.75
2023-05-05T05:10:45.666Z,8.75
2023-05-05T05:13:13.063Z,8.20
2023-05-05T05:15:40.648Z,9.18
2023-05-05T05:18:07.518Z,8.98
2023-05-05T05:20:34.936Z,8.82
2023-05-05T05:23:04.486Z,8.48
2023-05-05T05:25:31.704Z,8.63
2023-05-05T05:28:09.435Z,8.25
2023-05-05T05:30:37.249Z,8.88
2023-05-05T05:33:04.126Z,8.27
2023-05-05T05:35:31.589Z,8.75
2023-05-05T05:37:58.644Z,9.77
2023-05-05T05:40:25.496Z,9.00
2023-05-05T05:42:52.231Z,9.27
2023-05-05T05:45:19.045Z,9.65
2023-05-05T05:47:45.946Z,9.32
2023-05-05T05:50:12.904Z,10.10
2023-05-05T05:52:39.677Z,8.75
2023-05-05T05:55:07.616Z,10.98
2023-05-05T05:57:34.708Z,10.73
2023-05-05T06:00:05.422Z,11.20
2023-05-05T06:02:32.766Z,12.23
2023-05-05T06:04:59.826Z,12.55
2023-05-05T06:07:26.799Z,13.43
2023-05-05T06:09:53.972Z,13.48
2023-05-05T06:12:21.078Z,13.35
2023-05-05T06:14:48.047Z,12.88
2023-05-05T06:17:14.813Z,12.18
2023-05-05T06:19:41.717Z,12.27
2023-05-05T06:22:08.402Z,12.80
2023-05-05T06:24:35.355Z,12.93
2023-05-05T06:27:05.695Z,12.77
2023-05-05T06:29:32.560Z,14.38
2023-05-05T06:32:01.156Z,12.60
2023-05-05T06:34:28.190Z,13.35
2023-05-05T06:36:55.081Z,13.32
2023-05-05T06:39:21.775Z,13.30
2023-05-05T06:41:48.563Z,13.73
2023-05-05T06:44:15.371Z,16.23
2023-05-05T06:46:43.681Z,15.00
2023-05-05T06:49:10.735Z,14.50
2023-05-05T06:51:37.369Z,13.95
2023-05-05T06:54:04.515Z,14.60
2023-05-05T06:56:31.800Z,14.05
2023-05-05T06:58:58.898Z,13.45
2023-05-05T07:01:25.744Z,13.98
2023-05-05T07:03:52.670Z,12.75
2023-05-05T07:06:19.544Z,12.82
2023-05-05T07:08:46.355Z,12.05
2023-05-05T07:11:13.217Z,12.98
2023-05-05T07:13:40.070Z,11.48
2023-05-05T07:16:07.162Z,11.73
2023-05-05T07:18:34.029Z,11.20
2023-05-05T07:21:01.891Z,11.20
2023-05-05T07:23:28.958Z,11.65
2023-05-05T07:25:56.048Z,11.25
2023-05-05T07:28:22.835Z,10.75
2023-05-05T07:30:49.642Z,10.18
2023-05-05T07:33:16.493Z,9.55
2023-05-05T07:35:45.056Z,9.43
2023-05-05T07:38:16.929Z,8.85
2023-05-05T07:40:45.182Z,9.23
2023-05-05T07:43:12.031Z,9.05
2023-05-05T07:45:38.932Z,10.05
2023-05-05T07:48:07.119Z,9.25
2023-05-05T07:50:33.936Z,8.48
2023-05-05T07:53:10.895Z,9.52
2023-05-05T07:55:41.382Z,9.05
2023-05-05T07:58:08.703Z,9.25
2023-05-05T08:00:35.622Z,8.77
2023-05-05T08:03:02.533Z,6.30
2023-05-05T08:05:29.282Z,8.70
2023-05-05T08:07:56.776Z,9.20
2023-05-05T08:10:25.037Z,9.85
2023-05-05T08:12:51.779Z,8.98
2023-05-05T08:15:18.493Z,8.43
2023-05-05T08:17:52.931Z,9.35
2023-05-05T08:20:21.090Z,8.98
2023-05-05T08:22:48.144Z,8.30
2023-05-05T08:25:15.338Z,7.40
2023-05-05T08:27:43.234Z,6.95
2023-05-05T08:30:10.997Z,5.75
2023-05-05T08:32:38.510Z,5.15
2023-05-05T08:35:07.031Z,4.00
2023-05-05T08:37:34.529Z,4.18
2023-05-05T08:40:01.633Z,4.38
2023-05-05T08:42:38.175Z,6.57
2023-05-05T08:45:07.575Z,6.70
2023-05-05T08:47:35.702Z,6.15
2023-05-05T08:50:03.495Z,4.90
2023-05-05T08:52:39.482Z,4.40
2023-05-05T08:55:15.721Z,3.90
2023-05-05T08:57:53.190Z,4.43
2023-05-05T09:00:20.905Z,3.78
2023-05-05T09:02:48.363Z,3.80
2023-05-05T09:05:16.743Z,4.47
2023-05-05T09:07:44.612Z,3.65
2023-05-05T09:10:12.117Z,4.78
2023-05-05T09:12:42.886Z,4.30
2023-05-05T09:15:11.815Z,5.20
2023-05-05T09:17:41.038Z,5.97
2023-05-05T09:20:13.273Z,7.00
2023-05-05T09:22:47.555Z,7.82
2023-05-05T09:25:16.474Z,8.35
2023-05-05T09:27:46.387Z,7.82
2023-05-05T09:30:19.382Z,8.82
2023-05-05T09:32:51.478Z,7.97
2023-05-05T09:35:19.513Z,6.38
2023-05-05T09:37:47.151Z,6.15
2023-05-05T09:40:16.887Z,5.43
2023-05-05T09:42:45.421Z,5.93
2023-05-05T09:45:18.211Z,5.13
2023-05-05T09:47:46.660Z,5.43
2023-05-05T09:50:16.065Z,5.60
2023-05-05T09:52:43.391Z,7.30
2023-05-05T09:55:19.438Z,6.78
2023-05-05T09:57:47.598Z,7.47
2023-05-05T10:00:14.816Z,7.75
2023-05-05T10:02:42.116Z,8.30
2023-05-05T10:05:14.602Z,7.85
2023-05-05T10:07:43.205Z,9.30
2023-05-05T10:10:16.205Z,8.00
2023-05-05T10:12:43.770Z,8.23
2023-05-05T10:15:12.354Z,6.40
2023-05-05T10:20:21.550Z,4.53
2023-05-05T10:22:54.078Z,3.35
2023-05-05T10:25:36.564Z,2.50
2023-05-05T10:28:06.803Z,2.05
2023-05-05T10:30:39.552Z,2.80
2023-05-05T10:33:30.792Z,2.72
2023-05-05T10:36:02.596Z,2.28
2023-05-05T10:38:34.217Z,2.20
2023-05-05T10:41:04.356Z,2.40
2023-05-05T10:43:31.979Z,2.40
2023-05-05T10:45:59.663Z,2.60
2023-05-05T10:49:13.077Z,2.53
2023-05-05T10:51:54.956Z,2.22
2023-05-05T10:54:35.780Z,2.37
2023-05-05T10:57:08.322Z,1.85
2023-05-05T10:59:38.191Z,1.70
2023-05-05T11:02:25.655Z,1.80
2023-05-05T11:05:16.754Z,2.20
2023-05-05T11:07:45.287Z,2.80
2023-05-05T11:10:13.987Z,3.28
2023-05-05T11:12:59.397Z,4.05
2023-05-05T11:15:29.480Z,4.15
2023-05-05T11:18:07.884Z,3.80
2023-05-05T11:20:40.968Z,4.03
2023-05-05T11:23:08.226Z,4.25
2023-05-05T11:25:35.577Z,4.28
2023-05-05T11:28:09.768Z,4.90
2023-05-05T11:30:57.236Z,5.13
2023-05-05T11:33:32.614Z,4.53
2023-05-05T11:36:03.397Z,3.80
2023-05-05T11:38:53.331Z,4.63
2023-05-05T11:41:47.804Z,4.72
2023-05-05T11:44:33.961Z,4.22
2023-05-05T11:47:06.906Z,3.95
2023-05-05T11:49:38.066Z,4.30
2023-05-05T11:52:07.683Z,4.32
2023-05-05T11:54:40.739Z,4.53
2023-05-05T11:57:08.962Z,4.18
2023-05-05T11:59:49.668Z,3.58
2023-05-05T12:02:17.887Z,4.60
2023-05-05T12:04:45.128Z,4.30
2023-05-05T12:07:22.096Z,4.22
2023-05-05T12:09:50.138Z,4.50
2023-05-05T12:12:17.320Z,4.10
2023-05-05T12:14:52.570Z,4.38
2023-05-05T12:17:24.545Z,4.53
2023-05-05T12:19:55.724Z,5.28
2023-05-05T12:22:27.480Z,5.85
2023-05-05T12:24:58.972Z,6.90
2023-05-05T12:27:27.306Z,5.65
2023-05-05T12:29:55.556Z,4.97
2023-05-05T12:32:28.317Z,5.40
2023-05-05T12:34:57.932Z,5.28
2023-05-05T12:37:27.054Z,5.47
2023-05-05T12:39:55.288Z,6.25
2023-05-05T12:42:23.076Z,5.70
2023-05-05T12:44:50.747Z,5.00
2023-05-05T12:47:33.892Z,5.25
2023-05-05T12:50:03.405Z,5.32
2023-05-05T12:53:01.214Z,5.20
2023-05-05T12:55:46.143Z,4.90
2023-05-05T12:58:13.024Z,5.15
2023-05-05T13:00:42.182Z,5.47
2023-05-05T13:03:19.675Z,4.53
2023-05-05T13:05:50.352Z,4.88
2023-05-05T13:08:18.933Z,4.50
2023-05-05T13:10:58.474Z,4.00
2023-05-05T13:13:25.266Z,4.55
2023-05-05T13:15:53.635Z,3.92
2023-05-05T13:18:20.848Z,4.22
2023-05-05T13:20:48.358Z,3.95
2023-05-05T13:23:15.158Z,4.10
2023-05-05T13:25:41.927Z,4.15
2023-05-05T13:28:08.802Z,3.72
2023-05-05T13:30:35.725Z,3.47
2023-05-05T13:33:04.575Z,3.25
2023-05-05T13:35:32.841Z,3.55
2023-05-05T13:37:59.810Z,4.72
2023-05-05T13:40:26.964Z,3.70
2023-05-05T13:42:54.091Z,3.75
2023-05-05T13:45:21.699Z,3.28
2023-05-05T13:47:48.727Z,3.10
2023-05-05T13:50:15.566Z,2.70
2023-05-05T13:52:42.343Z,3.03
2023-05-05T13:55:09.825Z,2.70
2023-05-05T13:57:37.294Z,2.72
2023-05-05T14:00:04.579Z,3.08
2023-05-05T14:02:31.680Z,3.20
2023-05-05T14:04:58.637Z,3.17
2023-05-05T14:07:25.542Z,2.28
2023-05-05T14:09:52.534Z,3.00
2023-05-05T14:12:19.376Z,2.78
2023-05-05T14:14:46.629Z,2.90
2023-05-05T14:17:13.578Z,2.40
2023-05-05T14:19:40.747Z,2.90
2023-05-05T14:22:07.513Z,6.78
2023-05-05T14:24:35.587Z,3.72
2023-05-05T14:27:04.411Z,3.25
2023-05-05T14:29:31.421Z,2.58
2023-05-05T14:31:58.390Z,2.40
2023-05-05T14:34:25.363Z,2.50
2023-05-05T14:36:52.321Z,2.50
2023-05-05T14:39:19.839Z,2.67
2023-05-05T14:41:47.174Z,2.40
2023-05-05T14:44:13.969Z,3.17
2023-05-05T14:46:44.682Z,2.60
2023-05-05T14:49:12.821Z,2.75
2023-05-05T14:51:39.621Z,2.67
2023-05-05T14:54:14.246Z,3.63
2023-05-05T14:56:50.462Z,2.67
2023-05-05T14:59:17.251Z,2.90
2023-05-05T15:01:44.303Z,2.90
2023-05-05T15:04:11.015Z,2.90
2023-05-05T15:06:37.914Z,2.20
2023-05-05T15:09:04.874Z,2.70
2023-05-05T15:11:31.710Z,2.20
2023-05-05T15:14:00.223Z,2.22
2023-05-05T15:16:27.062Z,2.25
2023-05-05T15:18:54.230Z,2.30
2023-05-05T15:21:21.386Z,2.22
2023-05-05T15:23:48.200Z,2.22
2023-05-05T15:26:15.399Z,3.63
2023-05-05T15:28:43.216Z,2.70
2023-05-05T15:31:10.159Z,2.00
2023-05-05T15:33:37.086Z,2.00
2023-05-05T15:36:03.931Z,1.98
2023-05-05T15:38:32.233Z,1.90
2023-05-05T15:40:59.769Z,1.95
2023-05-05T15:43:26.860Z,1.90
2023-05-05T15:45:54.149Z,1.90
2023-05-05T15:48:21.456Z,2.20
2023-05-05T15:50:48.122Z,2.20
2023-05-05T15:53:15.121Z,2.60
2023-05-05T15:55:41.899Z,1.90
2023-05-05T15:58:08.838Z,1.88
2023-05-05T16:00:35.601Z,1.83
2023-05-05T16:03:02.483Z,2.30
2023-05-05T16:05:29.583Z,2.10
2023-05-05T16:07:56.940Z,1.75
2023-05-05T16:10:23.839Z,1.70
2023-05-05T16:12:52.213Z,2.20
2023-05-05T16:15:19.092Z,1.73
2023-05-05T16:17:45.898Z,1.85
2023-05-05T16:20:13.806Z,1.48
2023-05-05T16:22:40.861Z,1.80
2023-05-05T16:25:08.274Z,1.60
2023-05-05T16:27:36.254Z,1.45
2023-05-05T16:30:03.236Z,1.40
2023-05-05T16:32:30.049Z,1.50
2023-05-05T16:34:57.046Z,2.08
2023-05-05T16:37:25.088Z,1.70
2023-05-05T16:39:51.948Z,1.90
2023-05-05T16:42:19.655Z,1.80
2023-05-05T16:44:46.507Z,1.60
2023-05-05T16:47:14.861Z,1.83
2023-05-05T16:49:41.574Z,1.80
2023-05-05T16:52:08.460Z,1.60
2023-05-05T16:54:35.170Z,1.50
2023-05-05T16:57:03.813Z,1.60
2023-05-05T16:59:31.689Z,1.90
2023-05-05T17:01:58.617Z,1.90
2023-05-05T17:04:26.169Z,1.80
2023-05-05T17:06:55.287Z,1.70
2023-05-05T17:09:27.849Z,1.70
2023-05-05T17:11:54.705Z,1.60
2023-05-05T17:14:21.756Z,1.80
2023-05-05T17:16:48.664Z,1.63
2023-05-05T17:19:15.545Z,1.70
2023-05-05T17:21:44.518Z,1.80
2023-05-05T17:24:11.707Z,1.65
2023-05-05T17:26:40.019Z,1.92
2023-05-05T17:29:07.126Z,1.88
2023-05-05T17:31:38.536Z,1.75
2023-05-05T17:34:05.456Z,1.80
2023-05-05T17:36:33.540Z,1.73
2023-05-05T17:39:00.579Z,1.98
2023-05-05T17:41:27.421Z,1.90
2023-05-05T17:43:54.263Z,2.13
2023-05-05T17:46:22.072Z,2.17
2023-05-05T17:48:49.047Z,2.20
2023-05-05T17:51:15.954Z,2.13
2023-05-05T17:53:43.936Z,2.10
2023-05-05T17:56:10.881Z,2.05
2023-05-05T17:58:37.740Z,2.05
2023-05-05T18:01:07.915Z,2.30
2023-05-05T18:03:40.077Z,2.20
2023-05-05T18:06:07.900Z,2.50
2023-05-05T18:08:34.726Z,2.10
2023-05-05T18:11:01.870Z,2.20
2023-05-05T18:13:28.896Z,2.60
2023-05-05T18:15:55.652Z,2.50
2023-05-05T18:18:22.528Z,2.40
2023-05-05T18:20:51.296Z,2.13
2023-05-05T18:23:18.661Z,2.40
2023-05-05T18:25:46.728Z,2.30
2023-05-05T18:28:13.691Z,2.40
2023-05-05T18:30:40.787Z,2.50
2023-05-05T18:33:07.597Z,2.80
2023-05-05T18:35:34.705Z,2.47
2023-05-05T18:38:01.758Z,2.45
2023-05-05T18:40:28.528Z,2.53
2023-05-05T18:42:56.076Z,2.40
2023-05-05T18:45:23.039Z,2.30
2023-05-05T18:47:50.246Z,2.50
2023-05-05T18:50:17.340Z,2.47
2023-05-05T18:52:44.575Z,2.53
2023-05-05T18:55:11.777Z,2.50
2023-05-05T18:57:39.109Z,2.53
2023-05-05T19:00:06.512Z,2.80
2023-05-05T19:02:33.703Z,2.90
2023-05-05T19:05:00.571Z,2.97
2023-05-05T19:07:35.380Z,2.90
2023-05-05T19:10:04.817Z,3.10
2023-05-05T19:12:31.878Z,2.85
2023-05-05T19:14:58.817Z,3.00
2023-05-05T19:17:26.057Z,2.72
2023-05-05T19:19:53.292Z,2.22
2023-05-05T19:22:23.072Z,2.80
2023-05-05T19:24:50.187Z,2.60
2023-05-05T19:27:17.375Z,3.00
2023-05-05T19:29:44.686Z,2.65
2023-05-05T19:32:12.842Z,3.38
2023-05-05T19:34:40.752Z,3.10
2023-05-05T19:37:07.623Z,2.72
2023-05-05T19:39:34.525Z,2.90
2023-05-05T19:42:01.791Z,2.70
2023-05-05T19:44:29.910Z,2.40
2023-05-05T19:46:59.159Z,3.03
2023-05-05T19:49:28.455Z,3.13
2023-05-05T19:51:56.391Z,3.75
2023-05-05T19:54:24.964Z,2.75
2023-05-05T19:56:52.031Z,4.18
2023-05-05T19:59:18.954Z,4.40
2023-05-05T20:01:45.982Z,6.80
2023-05-05T20:04:13.045Z,7.45
2023-05-05T20:06:40.134Z,5.95
2023-05-05T20:09:07.703Z,4.95
2023-05-05T20:11:35.779Z,3.85
2023-05-05T20:14:02.723Z,3.92
2023-05-05T20:16:29.600Z,4.53
2023-05-05T20:18:56.615Z,5.00
2023-05-05T20:21:23.559Z,3.20
2023-05-05T20:23:50.514Z,3.63
2023-05-05T20:26:17.399Z,3.00
2023-05-05T20:28:45.839Z,2.67
2023-05-05T20:31:14.893Z,3.20
2023-05-05T20:33:41.760Z,2.80
2023-05-05T20:36:08.664Z,2.40
2023-05-05T20:38:35.713Z,2.90
2023-05-05T20:41:02.602Z,4.43
2023-05-05T20:43:29.407Z,3.83
2023-05-05T20:45:56.243Z,3.45
2023-05-05T20:48:23.135Z,3.45
2023-05-05T20:50:51.261Z,3.60
2023-05-05T20:53:19.310Z,3.70
2023-05-05T20:55:46.495Z,3.75
2023-05-05T20:58:13.371Z,3.83
2023-05-05T21:00:40.539Z,3.80
2023-05-05T21:03:07.288Z,4.47
2023-05-05T21:05:34.419Z,4.47
2023-05-05T21:08:01.510Z,4.80
2023-05-05T21:10:29.546Z,4.43
2023-05-05T21:12:56.693Z,3.20
2023-05-05T21:15:23.795Z,2.40
2023-05-05T21:17:51.204Z,1.98
2023-05-05T21:20:18.948Z,2.10
2023-05-05T21:22:46.203Z,2.88
2023-05-05T21:25:18.706Z,3.80
2023-05-05T21:27:47.411Z,4.82
2023-05-05T21:30:14.588Z,4.50
2023-05-05T21:32:43.772Z,5.18
2023-05-05T21:35:15.209Z,5.50
2023-05-05T21:37:42.345Z,4.15
2023-05-05T21:40:13.936Z,4.10
2023-05-05T21:42:42.443Z,2.15
2023-05-05T21:45:11.964Z,2.28
2023-05-05T21:47:39.084Z,1.90
2023-05-05T21:50:06.630Z,2.67
2023-05-05T21:52:34.949Z,2.70
2023-05-05T21:55:02.037Z,2.20
2023-05-05T21:57:29.245Z,2.25
2023-05-05T21:59:56.304Z,1.95
2023-05-05T22:02:23.360Z,1.80
2023-05-05T22:04:53.312Z,1.52
2023-05-05T22:07:20.152Z,1.60
2023-05-05T22:09:47.304Z,1.80
2023-05-05T22:12:14.246Z,2.08
2023-05-05T22:14:41.043Z,1.40
2023-05-05T22:17:08.276Z,1.35
2023-05-05T22:19:37.480Z,1.20
2023-05-05T22:22:06.911Z,3.05
2023-05-05T22:24:33.691Z,2.05
2023-05-05T22:27:01.896Z,1.65
2023-05-05T22:29:28.758Z,1.88
2023-05-05T22:31:57.341Z,1.90
2023-05-05T22:34:25.918Z,1.70
2023-05-05T22:36:52.963Z,1.73
2023-05-05T22:39:20.202Z,1.77
2023-05-05T22:41:47.361Z,1.83
2023-05-05T22:44:15.477Z,1.75
2023-05-05T22:46:42.275Z,1.98
2023-05-05T22:49:09.677Z,2.40
2023-05-05T22:51:39.699Z,2.53
2023-05-05T22:54:06.501Z,1.73
2023-05-05T22:56:33.590Z,1.70
2023-05-05T22:59:00.399Z,1.70
2023-05-05T23:01:27.389Z,1.88
2023-05-05T23:03:54.474Z,1.80
2023-05-05T23:06:32.335Z,2.25
2023-05-05T23:08:59.868Z,2.10
2023-05-05T23:11:30.404Z,2.42
2023-05-05T23:13:57.319Z,2.90
2023-05-05T23:16:24.115Z,2.45
2023-05-05T23:19:00.371Z,1.90
2023-05-05T23:21:32.158Z,1.80
2023-05-05T23:24:03.152Z,2.10
2023-05-05T23:26:30.967Z,2.42
2023-05-05T23:29:02.287Z,3.47
2023-05-05T23:31:30.450Z,2.63
2023-05-05T23:33:57.303Z,2.60
2023-05-05T23:36:24.045Z,2.67
2023-05-05T23:38:51.169Z,2.85
2023-05-05T23:41:19.209Z,3.20
2023-05-05T23:43:46.271Z,3.15
2023-05-05T23:46:13.640Z,1.85
2023-05-05T23:48:40.558Z,2.05
2023-05-05T23:51:07.349Z,2.30
2023-05-05T23:53:34.193Z,2.90
2023-05-05T23:56:01.187Z,4.22
2023-05-05T23:58:28.016Z,3.83
